Time;durP1;ratioP1;P1;durP2;ratioP2;P2;SDS_P1;SDS_P2;PMS_P1;PMS_P2;Temp;Humidity;BMP_temperature;BMP_pressure;BME280_temperature;BME280_humidity;BME280_pressure;Samples;Min_cycle;Max_cycle;Signal;HPM_P1;HPM_P2
2021/09/07 00:00:21;;;;;;;7.28;3.17;;;;;;;18.13;54.47;101066.59;5031115;28;20041;-22
2021/09/07 00:02:47;;;;;;;8.35;3.80;;;;;;;18.00;54.28;101052.38;5031241;28;20838;-22
2021/09/07 00:05:12;;;;;;;9.32;3.80;;;;;;;17.80;53.14;101060.88;5031004;28;20033;-22
2021/09/07 00:07:38;;;;;;;7.82;3.78;;;;;;;17.55;55.13;101050.47;5030772;28;20479;-22
2021/09/07 00:10:08;;;;;;;8.45;3.38;;;;;;;17.55;54.15;101046.91;5030774;28;20037;-22
2021/09/07 00:12:33;;;;;;;20.80;10.27;;;;;;;18.03;52.88;101051.84;5030825;28;20418;-22
2021/09/07 00:14:59;;;;;;;41.83;19.80;;;;;;;18.09;51.45;101022.25;5031084;28;20088;-22
2021/09/07 00:17:24;;;;;;;10.98;5.03;;;;;;;17.40;54.25;101042.06;5030561;28;20033;-22
2021/09/07 00:19:50;;;;;;;12.30;4.68;;;;;;;17.70;54.78;101058.00;5030738;28;20531;-22
2021/09/07 00:22:15;;;;;;;8.63;4.30;;;;;;;17.83;54.63;101052.31;5030487;28;20033;-22
2021/09/07 00:24:41;;;;;;;9.55;4.10;;;;;;;17.94;54.39;101064.13;5030528;28;20026;-22
2021/09/07 00:27:06;;;;;;;8.45;3.65;;;;;;;18.12;53.75;101048.75;5029091;28;20083;-22
2021/09/07 00:29:32;;;;;;;11.65;4.00;;;;;;;18.29;54.07;101065.78;5030122;28;20052;-22
2021/09/07 00:31:57;;;;;;;8.20;3.70;;;;;;;18.24;53.60;101054.88;5030565;28;20087;-22
2021/09/07 00:34:23;;;;;;;6.97;3.65;;;;;;;18.07;53.24;101031.41;5030242;28;20393;-22
2021/09/07 00:36:48;;;;;;;7.10;3.65;;;;;;;18.28;53.68;101056.03;5030458;28;20037;-22
2021/09/07 00:39:14;;;;;;;9.13;3.95;;;;;;;17.76;54.48;101067.81;5030357;28;20037;-22
2021/09/07 00:41:40;;;;;;;8.80;4.40;;;;;;;17.91;54.41;101066.50;5030277;28;20037;-22
2021/09/07 00:44:15;;;;;;;9.60;4.82;;;;;;;18.02;53.77;101044.84;5028967;28;20030;-22
2021/09/07 00:46:41;;;;;;;9.90;4.95;;;;;;;17.62;54.14;101051.09;5030325;28;20056;-22
2021/09/07 00:49:06;;;;;;;13.52;6.03;;;;;;;17.35;54.93;101060.84;5028783;28;20033;-22
2021/09/07 00:51:32;;;;;;;10.68;4.72;;;;;;;17.04;55.96;101060.19;5029984;28;20033;-22
2021/09/07 00:53:57;;;;;;;9.70;4.28;;;;;;;16.75;56.51;101062.78;5028768;28;20040;-22
2021/09/07 00:56:22;;;;;;;7.32;3.97;;;;;;;16.70;57.56;101057.28;5030072;28;20038;-22
2021/09/07 00:58:48;;;;;;;8.90;4.15;;;;;;;16.76;57.80;101059.06;5030343;28;20098;-22
2021/09/07 01:01:13;;;;;;;7.43;4.15;;;;;;;16.42;58.82;101052.59;5012367;28;20042;-22
2021/09/07 01:03:39;;;;;;;12.48;4.97;;;;;;;16.00;60.68;101066.94;5030083;28;20405;-22
2021/09/07 01:06:04;;;;;;;11.02;4.40;;;;;;;15.92;61.07;101045.75;5029953;28;20091;-22
2021/09/07 01:08:30;;;;;;;10.60;4.10;;;;;;;16.32;59.98;101057.75;5028811;28;20103;-22
2021/09/07 01:10:55;;;;;;;6.93;3.85;;;;;;;16.03;60.63;101044.94;5027722;28;20545;-22
2021/09/07 01:13:21;;;;;;;11.38;4.53;;;;;;;16.06;60.71;101057.97;5029395;28;20395;-23
2021/09/07 01:15:48;;;;;;;9.75;4.97;;;;;;;16.53;59.65;101059.03;5029528;28;20064;-22
2021/09/07 01:18:13;;;;;;;7.60;4.00;;;;;;;16.62;59.08;101057.66;5029616;28;20145;-23
2021/09/07 01:20:39;;;;;;;212.25;102.00;;;;;;;16.95;57.88;101061.63;5029561;28;20037;-23
2021/09/07 01:23:04;;;;;;;17.05;8.13;;;;;;;16.40;58.80;101049.34;5029355;28;20038;-23
2021/09/07 01:25:30;;;;;;;11.05;4.90;;;;;;;16.24;59.74;101046.28;5029336;28;20497;-23
2021/09/07 01:27:55;;;;;;;9.77;4.90;;;;;;;16.26;59.76;101021.81;5029292;28;20072;-22
2021/09/07 01:30:21;;;;;;;9.63;5.28;;;;;;;16.36;59.13;101057.03;5029310;28;20029;-22
2021/09/07 01:32:46;;;;;;;19.50;8.27;;;;;;;16.38;59.23;101051.44;5029391;28;20083;-22
2021/09/07 01:35:12;;;;;;;59.67;23.55;;;;;;;16.19;59.16;101042.66;5029528;28;20029;-23
2021/09/07 01:37:39;;;;;;;60.35;25.90;;;;;;;16.42;58.80;101052.59;5028975;28;20037;-22
2021/09/07 01:40:04;;;;;;;63.40;25.50;;;;;;;16.20;59.99;101036.19;5029147;28;20057;-22
2021/09/07 01:42:30;;;;;;;53.47;24.63;;;;;;;16.16;60.62;101048.47;5029381;28;20043;-22
2021/09/07 01:44:55;;;;;;;52.58;23.25;;;;;;;16.13;60.53;101055.16;5029299;28;20099;-22
2021/09/07 01:47:21;;;;;;;43.35;20.23;;;;;;;16.16;59.99;101045.78;5029001;28;20416;-22
2021/09/07 01:49:46;;;;;;;36.92;16.63;;;;;;;16.23;59.51;101033.88;5028839;28;20029;-22
2021/09/07 01:52:13;;;;;;;37.58;16.95;;;;;;;16.32;60.09;101041.59;5028930;28;20033;-22
2021/09/07 01:54:42;;;;;;;32.08;14.10;;;;;;;15.99;60.77;101046.47;5028912;28;20511;-23
2021/09/07 01:57:08;;;;;;;23.10;9.32;;;;;;;15.12;63.04;101035.22;5029031;28;20041;-22
2021/09/07 01:59:34;;;;;;;33.00;11.50;;;;;;;15.12;63.69;101048.66;5028741;28;20057;-22
2021/09/07 02:02:01;;;;;;;30.90;11.60;;;;;;;14.88;64.10;101053.91;5028674;28;20030;-22
2021/09/07 02:04:27;;;;;;;53.90;10.83;;;;;;;14.90;64.54;101054.50;5027505;28;20087;-23
2021/09/07 02:06:52;;;;;;;14.88;6.88;;;;;;;15.22;63.61;101040.88;5028536;28;20041;-23
2021/09/07 02:09:19;;;;;;;17.52;7.97;;;;;;;15.77;62.18;101062.34;5028208;28;20500;-22
2021/09/07 02:11:44;;;;;;;19.88;9.77;;;;;;;15.93;61.85;101055.47;5028337;28;20057;-22
2021/09/07 02:14:10;;;;;;;26.30;10.82;;;;;;;15.67;61.87;101068.22;5028498;28;20029;-23
2021/09/07 02:16:35;;;;;;;23.08;9.63;;;;;;;15.34;62.74;101059.75;5028433;28;20037;-23
2021/09/07 02:19:01;;;;;;;22.52;9.95;;;;;;;15.13;63.19;101055.69;5028377;28;20037;-23
2021/09/07 02:21:26;;;;;;;19.67;9.32;;;;;;;14.99;62.99;101042.41;5028337;28;20500;-23
2021/09/07 02:23:52;;;;;;;27.58;11.23;;;;;;;15.25;61.92;101046.63;5028293;28;20148;-22
2021/09/07 02:26:17;;;;;;;20.73;9.88;;;;;;;15.36;62.25;101058.47;5028655;28;20037;-23
2021/09/07 02:28:43;;;;;;;25.90;11.68;;;;;;;15.14;63.20;101058.16;5028247;28;20465;-23
2021/09/07 02:31:08;;;;;;;29.92;11.55;;;;;;;15.02;63.46;101050.00;5028351;28;20033;-23
2021/09/07 02:33:33;;;;;;;56.95;22.27;;;;;;;15.06;63.00;101035.09;5027874;28;20138;-22
2021/09/07 02:35:59;;;;;;;33.80;14.35;;;;;;;15.15;63.49;101054.41;5028087;28;20397;-23
2021/09/07 02:38:24;;;;;;;72.50;30.58;;;;;;;15.25;61.82;101038.56;5028003;28;20029;-22
2021/09/07 02:40:50;;;;;;;200.30;74.28;;;;;;;14.99;63.41;101055.00;5028043;28;20040;-23
2021/09/07 02:43:15;;;;;;;105.28;41.95;;;;;;;14.91;63.06;101039.19;5028035;28;20055;-22
2021/09/07 02:45:41;;;;;;;24.52;9.85;;;;;;;15.31;62.55;101049.47;5027684;28;20478;-22
2021/09/07 02:48:06;;;;;;;14.40;6.22;;;;;;;15.61;61.57;101047.63;5027692;28;20041;-23
2021/09/07 02:50:32;;;;;;;23.65;11.48;;;;;;;15.37;63.27;101051.25;5028009;28;20432;-23
2021/09/07 02:52:57;;;;;;;24.25;11.30;;;;;;;15.09;62.33;101055.31;5027714;28;20029;-23
2021/09/07 02:55:23;;;;;;;29.70;14.45;;;;;;;14.59;64.60;101042.00;5027425;28;20088;-23
2021/09/07 02:57:48;;;;;;;23.52;10.27;;;;;;;14.54;64.18;101053.38;5027935;28;20038;-23
2021/09/07 03:00:14;;;;;;;27.75;12.80;;;;;;;14.58;64.19;101056.47;5027947;28;20037;-23
2021/09/07 03:02:40;;;;;;;33.33;15.18;;;;;;;14.21;64.80;101054.47;5027556;28;20133;-23
2021/09/07 03:05:06;;;;;;;33.15;15.02;;;;;;;14.00;64.39;101034.22;5026666;28;20037;-23
2021/09/07 03:07:31;;;;;;;23.33;11.20;;;;;;;14.80;64.04;101057.69;5027354;28;20176;-23
2021/09/07 03:09:57;;;;;;;27.15;13.10;;;;;;;13.99;64.49;101056.69;5027416;28;20405;-22
2021/09/07 03:12:22;;;;;;;27.00;11.52;;;;;;;13.90;64.90;101058.00;5026371;28;20413;-22
2021/09/07 03:14:48;;;;;;;24.23;9.98;;;;;;;13.49;66.91;101055.78;5027471;28;20041;-22
2021/09/07 03:17:13;;;;;;;21.40;9.68;;;;;;;13.23;66.80;101052.97;5027327;28;20037;-22
2021/09/07 03:19:40;;;;;;;16.90;8.00;;;;;;;12.67;67.98;101021.44;5027302;28;20474;-23
2021/09/07 03:22:06;;;;;;;14.80;7.78;;;;;;;13.13;66.87;101057.94;5027181;28;20033;-23
2021/09/07 03:24:31;;;;;;;19.17;7.93;;;;;;;13.21;66.31;101033.59;5027462;28;20547;-23
2021/09/07 03:26:57;;;;;;;26.88;9.35;;;;;;;13.63;65.49;101042.09;5027366;28;20021;-23
2021/09/07 03:29:22;;;;;;;16.27;8.50;;;;;;;13.39;65.85;101066.94;5026944;28;20033;-22
2021/09/07 03:31:48;;;;;;;18.17;8.85;;;;;;;13.10;65.97;101050.34;5026472;28;20033;-23
2021/09/07 03:34:13;;;;;;;20.60;8.43;;;;;;;13.33;65.50;101065.94;5027106;28;20035;-22
2021/09/07 03:36:39;;;;;;;23.98;8.73;;;;;;;12.72;68.96;101056.41;5027451;28;20420;-23
2021/09/07 03:39:04;;;;;;;22.38;8.60;;;;;;;13.38;65.96;101070.66;5026063;28;20041;-23
2021/09/07 03:41:29;;;;;;;16.60;8.65;;;;;;;12.80;67.92;101058.84;5027187;28;20030;-22
2021/09/07 03:43:55;;;;;;;30.60;11.55;;;;;;;13.38;66.15;101065.28;5027190;28;20029;-22
2021/09/07 03:46:20;;;;;;;71.45;29.55;;;;;;;13.63;65.39;101026.00;5026984;28;20029;-23
2021/09/07 03:48:46;;;;;;;53.38;22.20;;;;;;;13.56;66.57;101062.72;5025544;28;20485;-22
2021/09/07 03:51:11;;;;;;;35.28;16.75;;;;;;;14.08;64.89;101062.63;5026723;28;20091;-22
2021/09/07 03:53:37;;;;;;;21.73;10.10;;;;;;;13.49;66.31;101045.88;5026671;28;20096;-22
2021/09/07 03:56:03;;;;;;;20.73;9.65;;;;;;;12.93;67.46;101043.78;5027098;28;20029;-22
2021/09/07 03:58:28;;;;;;;18.05;9.23;;;;;;;13.18;67.26;101076.88;5026903;28;20036;-23
2021/09/07 04:00:54;;;;;;;13.82;8.13;;;;;;;13.63;65.58;101076.13;5026848;28;20068;-22
2021/09/07 04:03:19;;;;;;;15.00;7.38;;;;;;;13.73;65.09;101075.63;5026924;28;20471;-22
2021/09/07 04:05:45;;;;;;;13.43;6.60;;;;;;;13.96;63.50;101067.88;5026952;28;20071;-22
2021/09/07 04:08:10;;;;;;;10.98;6.18;;;;;;;13.50;65.87;101082.34;5026753;28;20116;-22
2021/09/07 04:10:36;;;;;;;10.15;5.03;;;;;;;14.04;64.87;101082.88;5026918;28;20124;-23
2021/09/07 04:13:01;;;;;;;8.80;5.35;;;;;;;14.07;64.50;101064.47;5027191;28;20810;-22
2021/09/07 04:15:27;;;;;;;11.48;5.57;;;;;;;14.11;64.59;101075.59;5026478;28;20037;-22
2021/09/07 04:17:52;;;;;;;14.93;5.15;;;;;;;13.46;67.32;101081.13;5027343;28;20029;-22
2021/09/07 04:20:18;;;;;;;25.60;5.70;;;;;;;13.55;67.12;101079.03;5026744;28;20037;-22
2021/09/07 04:22:43;;;;;;;10.88;5.70;;;;;;;13.47;67.73;101074.75;5026737;28;20413;-22
2021/09/07 04:25:10;;;;;;;11.75;4.97;;;;;;;13.40;68.54;101095.38;5026724;28;20033;-22
2021/09/07 04:27:36;;;;;;;9.48;5.43;;;;;;;13.10;69.68;101068.25;5026424;28;20036;-22
2021/09/07 04:30:03;;;;;;;13.38;6.28;;;;;;;13.00;70.90;101093.63;5026712;28;20120;-22
2021/09/07 04:32:28;;;;;;;9.60;5.45;;;;;;;13.08;69.93;101081.88;5026711;28;20029;-23
2021/09/07 04:34:54;;;;;;;11.85;5.65;;;;;;;13.17;70.48;101095.84;5026639;28;20245;-22
2021/09/07 04:37:19;;;;;;;9.65;5.38;;;;;;;13.21;70.90;101097.06;5026340;28;20505;-22
2021/09/07 04:39:49;;;;;;;13.30;5.82;;;;;;;13.49;69.62;101072.69;5026618;28;20030;-22
2021/09/07 04:42:15;;;;;;;7.95;4.95;;;;;;;13.77;68.73;101100.97;5026553;28;20120;-22
2021/09/07 04:44:40;;;;;;;10.13;5.15;;;;;;;14.01;67.48;101092.16;5029382;28;20125;-22
2021/09/07 04:47:06;;;;;;;10.90;4.75;;;;;;;13.97;67.48;101100.88;5030283;28;20485;-22
2021/09/07 04:49:31;;;;;;;8.82;4.60;;;;;;;13.94;67.09;101102.13;5030045;28;20033;-22
2021/09/07 04:51:57;;;;;;;10.90;4.75;;;;;;;13.73;68.06;101105.97;5029947;28;20045;-22
2021/09/07 04:54:22;;;;;;;8.07;4.38;;;;;;;13.64;68.21;101097.31;5030120;28;20178;-22
2021/09/07 04:56:48;;;;;;;7.47;4.60;;;;;;;14.01;67.31;101113.63;5030153;28;20033;-22
2021/09/07 04:59:13;;;;;;;11.20;5.75;;;;;;;14.61;65.99;101115.09;5030016;28;20831;-22
2021/09/07 05:01:39;;;;;;;27.38;13.23;;;;;;;14.62;65.91;101119.41;5029883;28;20033;-22
2021/09/07 05:04:04;;;;;;;16.15;6.93;;;;;;;14.54;65.88;101116.97;5030237;28;20037;-22
2021/09/07 05:06:29;;;;;;;12.57;6.55;;;;;;;14.76;65.37;101110.19;5029825;28;20448;-22
2021/09/07 05:08:55;;;;;;;9.38;6.22;;;;;;;15.11;64.00;101119.56;5029668;28;20044;-22
2021/09/07 05:11:20;;;;;;;14.15;6.85;;;;;;;14.94;63.87;101108.59;5029487;28;20115;-22
2021/09/07 05:13:46;;;;;;;10.25;5.88;;;;;;;14.99;64.14;101114.09;5029626;28;20041;-22
2021/09/07 05:16:11;;;;;;;12.68;6.50;;;;;;;15.00;64.18;101105.03;5029758;28;20083;-22
2021/09/07 05:18:37;;;;;;;12.88;6.88;;;;;;;15.27;63.91;101109.03;5029699;28;20409;-22
2021/09/07 05:21:02;;;;;;;14.18;7.20;;;;;;;15.64;63.24;101122.44;5029554;28;20033;-22
2021/09/07 05:23:28;;;;;;;17.02;8.07;;;;;;;15.60;63.18;101132.00;5029628;28;20033;-22
2021/09/07 05:25:53;;;;;;;15.05;7.80;;;;;;;15.38;64.35;101125.47;5029657;28;20032;-22
2021/09/07 05:28:19;;;;;;;18.00;9.85;;;;;;;15.76;63.45;101135.16;5029538;28;20413;-22
2021/09/07 05:30:44;;;;;;;11.88;6.88;;;;;;;15.91;63.13;101132.06;5029651;28;20095;-22
2021/09/07 05:33:10;;;;;;;24.60;11.88;;;;;;;16.07;62.49;101131.41;5029484;28;20048;-23
2021/09/07 05:35:35;;;;;;;20.65;9.00;;;;;;;15.78;63.31;101116.94;5029204;28;20512;-22
2021/09/07 05:38:04;;;;;;;12.63;6.43;;;;;;;15.95;62.70;101128.69;5029462;28;20136;-22
2021/09/07 05:40:29;;;;;;;20.75;8.90;;;;;;;16.14;62.74;101131.31;5029368;28;20037;-23
2021/09/07 05:42:54;;;;;;;22.25;9.68;;;;;;;16.41;61.40;101119.09;5029306;28;20389;-22
2021/09/07 05:45:20;;;;;;;31.52;11.02;;;;;;;16.52;61.68;101127.44;5028943;28;20099;-22
2021/09/07 05:47:45;;;;;;;11.77;6.07;;;;;;;16.16;62.23;101123.84;5029423;28;20033;-22
2021/09/07 05:50:13;;;;;;;7.40;4.78;;;;;;;16.82;60.70;101122.78;5028935;28;20037;-22
2021/09/07 05:52:39;;;;;;;11.10;4.32;;;;;;;17.01;60.36;101120.78;5029266;28;20056;-22
2021/09/07 05:55:05;;;;;;;9.25;3.90;;;;;;;17.25;59.01;101120.75;5028276;28;20486;-22
2021/09/07 05:57:30;;;;;;;8.85;4.45;;;;;;;17.02;60.14;101102.72;5028779;28;20515;-22
2021/09/07 05:59:55;;;;;;;13.10;6.15;;;;;;;17.43;58.04;101111.69;5028679;28;20034;-22
2021/09/07 06:02:22;;;;;;;14.48;6.55;;;;;;;17.03;58.73;101117.84;5028770;28;20037;-23
2021/09/07 06:04:47;;;;;;;8.68;4.43;;;;;;;16.98;58.21;101096.19;5028880;28;20041;-22
2021/09/07 06:07:13;;;;;;;7.72;4.22;;;;;;;17.51;57.69;101105.94;5028645;28;20040;-22
2021/09/07 06:09:38;;;;;;;8.05;3.92;;;;;;;17.72;57.66;101112.53;5028507;28;20051;-22
2021/09/07 06:12:04;;;;;;;7.18;4.13;;;;;;;17.46;57.07;101103.94;5028566;28;20053;-22
2021/09/07 06:14:31;;;;;;;8.93;3.40;;;;;;;17.44;56.99;101102.53;5028851;28;20091;-23
2021/09/07 06:16:57;;;;;;;7.32;3.65;;;;;;;17.38;56.99;101087.31;5028740;28;20056;-22
2021/09/07 06:19:22;;;;;;;11.68;5.78;;;;;;;17.78;55.86;101098.09;5028551;28;20037;-22
2021/09/07 06:21:48;;;;;;;9.60;5.20;;;;;;;17.71;56.53;101101.97;5028473;28;20096;-22
2021/09/07 06:24:13;;;;;;;10.57;5.40;;;;;;;17.87;55.69;101106.63;5028663;28;20033;-22
2021/09/07 06:26:39;;;;;;;14.07;5.88;;;;;;;18.29;53.33;101111.69;5028363;28;20042;-23
2021/09/07 06:29:04;;;;;;;9.40;4.55;;;;;;;18.44;52.42;101111.13;5026846;28;20029;-23
2021/09/07 06:31:30;;;;;;;6.78;2.80;;;;;;;18.63;50.58;101108.97;5028086;28;20041;-22
2021/09/07 06:33:55;;;;;;;8.55;3.78;;;;;;;18.55;50.43;101095.88;5028128;28;20120;-23
2021/09/07 06:36:21;;;;;;;12.77;3.88;;;;;;;18.58;50.82;101117.00;5028020;28;20379;-22
2021/09/07 06:38:46;;;;;;;9.52;3.63;;;;;;;18.70;51.07;101114.22;5028077;28;20044;-22
2021/09/07 06:41:12;;;;;;;11.73;4.65;;;;;;;18.67;49.74;101110.94;5028064;28;20033;-22
2021/09/07 06:43:37;;;;;;;8.95;3.40;;;;;;;19.07;47.84;101103.69;5027792;28;20036;-22
2021/09/07 06:46:03;;;;;;;6.03;2.83;;;;;;;19.03;46.48;101097.16;5027970;28;20030;-22
2021/09/07 06:48:28;;;;;;;5.38;2.70;;;;;;;19.12;45.82;101100.22;5027821;28;20021;-23
2021/09/07 06:50:53;;;;;;;7.85;2.92;;;;;;;19.28;45.26;101102.88;5028233;28;20420;-22
2021/09/07 06:53:19;;;;;;;5.63;2.20;;;;;;;19.35;45.66;101108.13;5027664;28;20067;-22
2021/09/07 06:55:44;;;;;;;7.22;2.60;;;;;;;19.70;43.42;101106.88;5028057;28;20509;-22
2021/09/07 06:58:10;;;;;;;8.82;2.80;;;;;;;19.82;43.90;101106.78;5028069;28;20029;-22
2021/09/07 07:00:35;;;;;;;9.18;2.92;;;;;;;20.17;44.59;101111.69;5027756;28;20046;-22
2021/09/07 07:03:01;;;;;;;8.18;3.05;;;;;;;20.47;43.31;101108.44;5027568;28;20033;-22
2021/09/07 07:05:26;;;;;;;5.85;2.30;;;;;;;20.56;41.68;101113.38;5027454;28;20029;-22
2021/09/07 07:07:52;;;;;;;5.55;2.13;;;;;;;20.63;42.59;101097.72;5026552;28;20032;-22
2021/09/07 07:10:18;;;;;;;6.40;2.00;;;;;;;20.47;41.83;101115.72;5027326;28;20158;-22
2021/09/07 07:12:43;;;;;;;5.57;1.77;;;;;;;20.62;40.80;101110.47;5027498;28;20478;-22
2021/09/07 07:15:10;;;;;;;4.57;1.63;;;;;;;20.64;39.38;101102.06;5027567;28;20523;-22
2021/09/07 07:17:35;;;;;;;4.47;1.45;;;;;;;20.38;40.91;101122.72;5027271;28;20033;-22
2021/09/07 07:20:01;;;;;;;2.92;1.42;;;;;;;20.22;39.21;101090.06;5027724;28;20044;-22
2021/09/07 07:22:26;;;;;;;3.53;1.50;;;;;;;20.70;40.26;101084.78;5027347;28;20025;-22
2021/09/07 07:24:53;;;;;;;5.95;1.75;;;;;;;21.12;38.64;101099.34;5027517;28;20087;-22
2021/09/07 07:27:18;;;;;;;4.63;1.38;;;;;;;21.20;38.55;101080.66;5027483;28;20064;-22
2021/09/07 07:29:44;;;;;;;3.38;1.23;;;;;;;21.52;38.74;101108.78;5027546;28;20060;-22
2021/09/07 07:32:09;;;;;;;5.57;1.42;;;;;;;20.99;38.99;101103.38;5027129;28;20480;-22
2021/09/07 07:34:35;;;;;;;4.18;1.50;;;;;;;21.00;39.61;101102.28;5027568;28;20111;-22
2021/09/07 07:37:01;;;;;;;7.85;1.67;;;;;;;21.15;38.84;101102.38;5027650;28;20029;-22
2021/09/07 07:39:26;;;;;;;6.82;1.70;;;;;;;21.43;37.63;101111.16;5027146;28;20033;-22
2021/09/07 07:41:52;;;;;;;5.32;1.40;;;;;;;21.82;36.27;101086.28;5026935;28;20025;-22
2021/09/07 07:44:18;;;;;;;2.67;1.20;;;;;;;21.79;37.56;101093.09;5027278;28;20068;-22
2021/09/07 07:46:44;;;;;;;4.28;1.38;;;;;;;21.69;38.41;101094.97;5027408;28;20033;-22
2021/09/07 07:49:09;;;;;;;2.67;1.17;;;;;;;22.05;37.80;101115.66;5026983;28;20060;-22
2021/09/07 07:51:35;;;;;;;5.13;1.50;;;;;;;21.93;37.17;101109.69;5026833;28;20033;-22
2021/09/07 07:54:01;;;;;;;5.38;1.50;;;;;;;21.78;36.91;101096.91;5027178;28;20124;-23
2021/09/07 07:56:27;;;;;;;3.95;1.45;;;;;;;21.16;38.60;101116.72;5025760;28;20034;-22
2021/09/07 07:58:52;;;;;;;5.10;1.55;;;;;;;20.55;39.54;101114.44;5027056;28;20107;-22
2021/09/07 08:01:18;;;;;;;4.07;1.30;;;;;;;20.92;39.60;101113.63;5026848;28;20029;-22
2021/09/07 08:03:46;;;;;;;5.47;1.33;;;;;;;21.02;40.07;101105.53;5026961;28;20037;-23
2021/09/07 08:06:12;;;;;;;4.43;1.48;;;;;;;21.69;38.33;101113.97;5026775;28;20409;-22
2021/09/07 08:08:37;;;;;;;6.05;1.60;;;;;;;21.86;38.16;101120.81;5026969;28;20470;-23
2021/09/07 08:11:03;;;;;;;6.82;1.67;;;;;;;22.38;37.14;101113.53;5027044;28;20060;-21
2021/09/07 08:13:28;;;;;;;4.15;1.40;;;;;;;21.77;38.23;101106.13;5026839;28;20037;-22
2021/09/07 08:15:54;;;;;;;5.65;1.20;;;;;;;21.74;38.17;101094.97;5026708;28;20032;-22
2021/09/07 08:18:19;;;;;;;4.10;1.40;;;;;;;21.57;37.67;101116.94;5027933;28;20044;-22
2021/09/07 08:20:45;;;;;;;4.63;1.50;;;;;;;21.60;38.10;101119.94;5031000;28;20569;-22
2021/09/07 08:23:10;;;;;;;4.35;1.35;;;;;;;21.82;37.83;101118.88;5030640;28;20033;-22
2021/09/07 08:25:36;;;;;;;5.95;1.65;;;;;;;22.02;37.34;101118.09;5030170;28;20040;-22
2021/09/07 08:28:01;;;;;;;5.22;1.20;;;;;;;21.54;37.75;101102.00;5030570;28;20025;-22
2021/09/07 08:30:27;;;;;;;4.28;1.40;;;;;;;21.91;37.74;101106.41;5030540;28;20037;-22
2021/09/07 08:32:52;;;;;;;3.67;1.35;;;;;;;22.44;37.04;101104.28;5030379;28;20034;-22
2021/09/07 08:35:18;;;;;;;3.25;1.73;;;;;;;22.86;35.42;101078.66;5030109;28;20025;-22
2021/09/07 08:37:43;;;;;;;7.88;2.20;;;;;;;22.13;36.36;101092.59;5030552;28;20588;-22
2021/09/07 08:40:09;;;;;;;4.18;1.65;;;;;;;21.96;36.00;101102.88;5030213;28;20025;-22
2021/09/07 08:42:35;;;;;;;5.88;1.60;;;;;;;22.72;36.02;101102.09;5030442;28;20032;-22
2021/09/07 08:45:01;;;;;;;3.53;1.50;;;;;;;22.84;34.80;101094.44;5030565;28;20061;-22
2021/09/07 08:47:27;;;;;;;3.45;1.48;;;;;;;23.33;34.58;101092.91;5030450;28;20025;-22
2021/09/07 08:49:52;;;;;;;3.75;1.10;;;;;;;23.04;35.04;101079.16;5030235;28;20029;-23
2021/09/07 08:52:19;;;;;;;3.08;1.55;;;;;;;22.95;34.42;101075.38;5030280;28;20026;-22
2021/09/07 08:54:45;;;;;;;3.15;1.35;;;;;;;22.80;35.48;101071.63;5029843;28;20075;-22
2021/09/07 08:57:11;;;;;;;5.35;1.90;;;;;;;23.20;35.52;101083.47;5030169;28;20827;-22
2021/09/07 08:59:36;;;;;;;7.47;1.80;;;;;;;23.73;35.04;101082.09;5029984;28;20033;-22
2021/09/07 09:02:17;;;;;;;4.30;1.58;;;;;;;24.24;33.57;101079.03;5029841;28;20025;-22
2021/09/07 09:04:44;;;;;;;3.10;1.40;;;;;;;23.62;32.83;101074.00;5029879;28;20033;-22
2021/09/07 09:07:36;;;;;;;5.47;2.20;;;;;;;22.75;35.33;101087.94;5029791;28;20025;-22
2021/09/07 09:10:03;;;;;;;6.38;1.50;;;;;;;22.53;36.17;101073.84;5029206;28;20379;-22
2021/09/07 09:12:35;;;;;;;3.63;1.48;;;;;;;22.27;36.01;101093.72;5028449;28;20022;-22
2021/09/07 09:15:14;;;;;;;4.07;1.80;;;;;;;22.48;36.15;101092.88;5029947;28;20026;-22
2021/09/07 09:17:40;;;;;;;3.22;1.67;;;;;;;23.02;36.17;101075.91;5029420;28;20033;-22
2021/09/07 09:20:18;;;;;;;7.10;1.90;;;;;;;23.34;35.42;101061.09;5029886;28;20040;-23
2021/09/07 09:22:43;;;;;;;5.05;1.48;;;;;;;23.71;34.71;101081.56;5029770;28;20022;-22
2021/09/07 09:25:22;;;;;;;4.82;1.58;;;;;;;23.31;34.93;101073.34;5029786;28;20701;-22
2021/09/07 09:27:56;;;;;;;4.20;1.77;;;;;;;23.91;32.24;101065.13;5029407;28;20025;-22
2021/09/07 09:30:30;;;;;;;3.75;1.40;;;;;;;24.40;32.51;101066.88;5028596;28;20025;-22
2021/09/07 09:32:58;;;;;;;3.90;1.30;;;;;;;24.56;31.52;101039.47;5029430;28;20029;-22
2021/09/07 09:35:24;;;;;;;4.63;1.90;;;;;;;24.67;32.52;101055.44;5029529;28;20032;-22
2021/09/07 09:37:55;;;;;;;4.47;1.60;;;;;;;24.94;31.89;101047.78;5029655;28;20030;-22
2021/09/07 09:40:21;;;;;;;5.35;1.45;;;;;;;24.86;30.67;101046.50;5029209;28;20417;-22
2021/09/07 09:42:48;;;;;;;5.55;1.52;;;;;;;24.94;31.89;101042.31;5029067;28;20477;-22
2021/09/07 09:45:13;;;;;;;6.43;1.50;;;;;;;24.51;30.61;101039.53;5029187;28;20065;-22
2021/09/07 09:47:51;;;;;;;5.70;1.42;;;;;;;24.59;31.22;101036.97;5029120;28;20417;-23
2021/09/07 09:50:17;;;;;;;5.13;1.77;;;;;;;24.52;32.52;101049.31;5029188;28;20486;-22
2021/09/07 09:52:43;;;;;;;4.55;1.92;;;;;;;24.77;32.30;101045.53;5028916;28;20029;-22
2021/09/07 09:55:10;;;;;;;4.60;1.50;;;;;;;25.02;32.26;101049.88;5029123;28;20068;-22
2021/09/07 09:57:37;;;;;;;5.22;1.48;;;;;;;24.13;33.28;101028.41;5028693;28;20136;-22
2021/09/07 10:00:07;;;;;;;4.65;1.58;;;;;;;24.59;32.96;101026.06;5028854;28;20033;-22
2021/09/07 10:02:32;;;;;;;3.47;1.50;;;;;;;25.15;32.71;101040.97;5028948;28;20021;-22
2021/09/07 10:05:01;;;;;;;7.43;1.60;;;;;;;25.17;32.91;101044.22;5029056;28;20484;-22
2021/09/07 10:07:27;;;;;;;5.82;1.50;;;;;;;25.19;33.30;101043.91;5028539;28;20033;-22
2021/09/07 10:09:53;;;;;;;5.57;1.77;;;;;;;24.97;33.06;101041.75;5028511;28;20033;-22
2021/09/07 10:12:33;;;;;;;3.72;1.50;;;;;;;24.41;34.26;101052.13;5010825;28;20102;-22
2021/09/07 10:17:42;;;;;;;6.25;1.90;;;;;;;24.71;34.65;101043.97;5010979;28;20072;-22
2021/09/07 10:20:34;;;;;;;4.45;1.50;;;;;;;24.94;33.62;101054.03;5028753;28;20868;-22
2021/09/07 10:25:54;;;;;;;6.07;2.00;;;;;;;24.72;35.05;101051.03;5027174;28;20120;-22
2021/09/07 10:28:40;;;;;;;3.40;1.40;;;;;;;24.95;35.10;101054.88;5028272;28;20026;-22
2021/09/07 10:31:06;;;;;;;4.30;1.50;;;;;;;24.91;35.56;101056.53;5028371;28;20034;-22
2021/09/07 10:33:33;;;;;;;5.03;1.42;;;;;;;25.19;35.37;101028.38;5027853;28;20057;-22
2021/09/07 10:36:19;;;;;;;4.83;1.30;;;;;;;25.37;33.96;101045.88;5028023;28;20039;-22
2021/09/07 10:38:49;;;;;;;4.97;1.55;;;;;;;25.56;34.26;101037.69;5028371;28;20272;-22
2021/09/07 10:41:32;;;;;;;6.10;1.90;;;;;;;25.06;34.25;101051.72;5027966;28;20025;-22
2021/09/07 10:44:16;;;;;;;4.88;1.52;;;;;;;25.03;34.85;101051.50;5027961;28;20493;-22
2021/09/07 10:46:47;;;;;;;4.78;1.50;;;;;;;24.32;34.90;101048.41;5028032;28;20024;-22
2021/09/07 10:49:17;;;;;;;6.65;1.45;;;;;;;24.92;34.74;101036.34;5027778;28;20040;-22
2021/09/07 10:52:04;;;;;;;13.00;5.95;;;;;;;24.52;35.18;101036.53;5028436;28;20029;-22
2021/09/07 10:54:30;;;;;;;9.93;3.45;;;;;;;25.01;34.45;101010.03;5028012;28;20035;-22
2021/09/07 10:56:58;;;;;;;7.13;2.60;;;;;;;25.39;33.62;101031.94;5028031;28;20037;-22
2021/09/07 10:59:53;;;;;;;10.25;3.88;;;;;;;25.59;32.81;101036.28;5027858;28;20030;-23
2021/09/07 11:02:40;;;;;;;5.53;1.77;;;;;;;25.91;32.69;101021.88;5027760;28;20025;-22
2021/09/07 11:05:10;;;;;;;4.18;1.50;;;;;;;25.85;32.28;101020.31;5027662;28;20048;-22
2021/09/07 11:07:45;;;;;;;3.08;1.52;;;;;;;26.04;32.92;101007.44;5027365;28;20509;-22
2021/09/07 11:10:14;;;;;;;6.28;1.83;;;;;;;25.20;32.84;101019.06;5027476;28;20037;-22
2021/09/07 11:12:39;;;;;;;4.68;1.63;;;;;;;24.80;34.47;101021.19;5027676;28;20052;-22
2021/09/07 11:15:05;;;;;;;7.20;1.60;;;;;;;25.23;33.41;101018.50;5027802;28;20473;-22
2021/09/07 11:17:31;;;;;;;2.13;1.30;;;;;;;25.79;32.87;101008.66;5027524;28;20029;-22
2021/09/07 11:20:07;;;;;;;5.35;1.70;;;;;;;26.17;31.13;100997.63;5027555;28;20032;-22
2021/09/07 11:22:33;;;;;;;6.28;2.00;;;;;;;25.75;31.91;101001.34;5027467;28;20040;-22